createdAt,value
2022-08-14T00:02:27.357Z,28.64
2022-08-14T00:04:55.837Z,28.76
2022-08-14T00:07:24.022Z,28.72
2022-08-14T00:10:02.504Z,29.72
2022-08-14T00:12:53.279Z,29.61
2022-08-14T00:15:43.545Z,29.98
2022-08-14T00:18:30.810Z,30.51
2022-08-14T00:21:10.885Z,30.29
2022-08-14T00:23:40.342Z,30.25
2022-08-14T00:26:23.015Z,30.02
2022-08-14T00:28:53.391Z,32.29
2022-08-14T00:31:35.305Z,33.43
2022-08-14T00:34:36.063Z,33.18
2022-08-14T00:37:07.732Z,31.73
2022-08-14T00:39:38.417Z,31.48
2022-08-14T00:42:07.088Z,32.44
2022-08-14T00:44:50.290Z,32.78
2022-08-14T00:47:23.706Z,30.82
2022-08-14T00:49:59.786Z,31.32
2022-08-14T00:52:28.048Z,31.77
2022-08-14T00:54:58.576Z,33.22
2022-08-14T00:57:34.449Z,32.21
2022-08-14T01:00:34.166Z,33.53
2022-08-14T01:03:05.409Z,32.19
2022-08-14T01:05:51.068Z,32.30
2022-08-14T01:08:57.377Z,30.81
2022-08-14T01:11:10.900Z,30.82
2022-08-14T01:13:55.776Z,30.75
2022-08-14T01:16:28.139Z,30.85
2022-08-14T01:19:02.458Z,31.05
2022-08-14T01:21:38.714Z,30.21
2022-08-14T01:24:28.797Z,29.15
2022-08-14T01:27:00.248Z,29.49
2022-08-14T01:29:59.121Z,28.72
2022-08-14T01:32:23.196Z,28.66
2022-08-14T01:35:19.348Z,28.69
2022-08-14T01:37:56.361Z,28.18
2022-08-14T01:40:36.237Z,28.55
2022-08-14T01:43:15.949Z,27.63
2022-08-14T01:45:48.950Z,27.55
2022-08-14T01:48:26.228Z,27.05
2022-08-14T01:50:55.058Z,26.49
2022-08-14T01:53:23.286Z,26.30
2022-08-14T01:55:51.366Z,26.38
2022-08-14T01:58:28.722Z,26.49
2022-08-14T02:00:58.475Z,26.56
2022-08-14T02:03:32.742Z,26.28
2022-08-14T02:06:32.352Z,26.03
2022-08-14T02:08:55.411Z,26.41
2022-08-14T02:11:29.158Z,26.16
2022-08-14T02:14:07.024Z,26.23
2022-08-14T02:16:42.293Z,25.65
2022-08-14T02:19:18.451Z,25.82
2022-08-14T02:21:52.837Z,25.47
2022-08-14T02:24:40.195Z,25.24
2022-08-14T02:28:24.521Z,25.00
2022-08-14T02:30:00.210Z,24.73
2022-08-14T02:32:36.230Z,24.47
2022-08-14T02:35:08.082Z,24.42
2022-08-14T02:37:47.339Z,24.17
2022-08-14T02:40:18.831Z,24.34
2022-08-14T02:42:54.576Z,24.16
2022-08-14T02:45:23.530Z,24.25
2022-08-14T02:47:53.929Z,23.98
2022-08-14T02:50:27.065Z,23.87
2022-08-14T02:53:03.057Z,23.91
2022-08-14T02:55:31.911Z,23.63
2022-08-14T02:58:05.835Z,23.62
2022-08-14T03:00:40.079Z,23.55
2022-08-14T03:03:08.964Z,23.05
2022-08-14T03:05:41.284Z,23.46
2022-08-14T03:08:15.158Z,23.68
2022-08-14T03:10:48.594Z,23.49
2022-08-14T03:13:21.463Z,23.37
2022-08-14T03:15:55.930Z,23.51
2022-08-14T03:18:31.736Z,22.69
2022-08-14T03:21:08.139Z,22.95
2022-08-14T03:23:38.475Z,22.53
2022-08-14T03:26:12.726Z,22.37
2022-08-14T03:28:48.743Z,22.25
2022-08-14T03:31:17.779Z,22.28
2022-08-14T03:33:51.639Z,22.61
2022-08-14T03:37:37.551Z,22.50
2022-08-14T03:39:21.453Z,22.54
2022-08-14T03:42:01.775Z,22.37
2022-08-14T03:45:18.747Z,22.55
2022-08-14T03:47:18.299Z,22.32
2022-08-14T03:49:49.607Z,22.01
2022-08-14T03:52:40.609Z,21.86
2022-08-14T03:55:11.125Z,21.99
2022-08-14T03:57:41.241Z,22.15
2022-08-14T04:00:42.920Z,21.86
2022-08-14T04:03:04.384Z,22.54
2022-08-14T04:05:43.092Z,22.65
2022-08-14T04:08:29.112Z,22.13
2022-08-14T04:11:01.953Z,22.01
2022-08-14T04:13:33.998Z,21.49
2022-08-14T04:16:13.419Z,21.34
2022-08-14T04:18:49.422Z,22.09
2022-08-14T04:21:22.049Z,22.02
2022-08-14T04:23:57.198Z,21.56
2022-08-14T04:26:42.208Z,21.28
2022-08-14T04:29:16.058Z,21.61
2022-08-14T04:32:58.391Z,21.29
2022-08-14T04:34:33.606Z,20.75
2022-08-14T04:37:07.233Z,20.54
2022-08-14T04:39:38.051Z,20.67
2022-08-14T04:42:14.739Z,21.03
2022-08-14T04:44:42.805Z,21.40
2022-08-14T04:47:17.026Z,19.73
2022-08-14T04:49:57.015Z,19.28
2022-08-14T04:52:26.199Z,18.62
2022-08-14T04:54:56.857Z,18.70
2022-08-14T04:57:26.038Z,18.92
2022-08-14T04:59:57.025Z,18.73
2022-08-14T05:02:25.335Z,19.06
2022-08-14T05:04:58.512Z,19.17
2022-08-14T05:07:46.367Z,19.38
2022-08-14T05:10:16.551Z,19.29
2022-08-14T05:13:14.124Z,19.11
2022-08-14T05:15:39.968Z,19.21
2022-08-14T05:19:19.187Z,19.22
2022-08-14T05:21:56.833Z,19.40
2022-08-14T05:23:58.084Z,19.70
2022-08-14T05:26:27.245Z,20.02
2022-08-14T05:28:55.370Z,20.33
2022-08-14T05:31:39.869Z,20.57
2022-08-14T05:34:09.516Z,20.23
2022-08-14T05:36:38.393Z,19.87
2022-08-14T05:39:07.540Z,19.80
2022-08-14T05:41:53.013Z,19.84
2022-08-14T05:44:22.947Z,19.86
2022-08-14T05:46:55.782Z,19.22
2022-08-14T05:49:26.146Z,19.53
2022-08-14T05:52:09.856Z,19.15
2022-08-14T05:54:40.465Z,18.92
2022-08-14T05:57:08.534Z,18.97
2022-08-14T05:59:40.011Z,19.02
2022-08-14T06:02:11.708Z,19.24
2022-08-14T06:04:43.150Z,18.97
2022-08-14T06:07:14.321Z,19.00
2022-08-14T06:09:51.078Z,19.10
2022-08-14T06:12:31.708Z,18.77
2022-08-14T06:15:10.512Z,19.31
2022-08-14T06:18:04.694Z,18.85
2022-08-14T06:20:34.175Z,18.68
2022-08-14T06:23:05.342Z,18.48
2022-08-14T06:25:33.612Z,18.36
2022-08-14T06:28:02.117Z,18.83
2022-08-14T06:30:46.521Z,19.21
2022-08-14T06:33:18.047Z,19.11
2022-08-14T06:35:47.743Z,18.47
2022-08-14T06:38:23.339Z,18.12
2022-08-14T06:40:54.796Z,17.89
2022-08-14T06:43:29.804Z,17.53
2022-08-14T06:46:05.829Z,17.38
2022-08-14T06:48:41.914Z,17.31
2022-08-14T06:51:12.732Z,17.27
2022-08-14T06:53:43.777Z,17.21
2022-08-14T06:56:16.685Z,17.45
2022-08-14T06:58:47.046Z,18.44
2022-08-14T07:01:15.149Z,19.15
2022-08-14T07:03:43.874Z,19.29
2022-08-14T07:06:21.460Z,19.24
2022-08-14T07:09:05.038Z,19.16
2022-08-14T07:11:33.201Z,19.16
2022-08-14T07:14:03.001Z,18.60
2022-08-14T07:16:32.101Z,17.93
2022-08-14T07:19:04.477Z,18.41
2022-08-14T07:21:35.239Z,17.84
2022-08-14T07:24:05.031Z,17.16
2022-08-14T07:26:41.127Z,17.11
2022-08-14T07:29:09.331Z,17.08
2022-08-14T07:31:40.049Z,17.02
2022-08-14T07:34:11.535Z,16.89
2022-08-14T07:36:58.150Z,16.93
2022-08-14T07:39:29.330Z,16.74
2022-08-14T07:42:04.000Z,16.72
2022-08-14T07:44:45.714Z,16.45
2022-08-14T07:47:14.352Z,16.29
2022-08-14T07:50:03.049Z,16.25
2022-08-14T07:52:33.592Z,16.17
2022-08-14T07:55:01.971Z,16.25
2022-08-14T07:57:30.107Z,15.97
2022-08-14T08:00:01.084Z,15.85
2022-08-14T08:02:34.500Z,15.83
2022-08-14T08:05:05.881Z,15.90
2022-08-14T08:07:39.128Z,16.01
2022-08-14T08:10:16.099Z,15.83
2022-08-14T08:13:00.391Z,15.69
2022-08-14T08:15:33.709Z,15.73
2022-08-14T08:18:01.924Z,15.69
2022-08-14T08:20:34.768Z,15.57
2022-08-14T08:23:08.074Z,15.58
2022-08-14T08:25:50.821Z,15.33
2022-08-14T08:28:26.427Z,15.44
2022-08-14T08:31:00.480Z,15.58
2022-08-14T08:33:32.304Z,15.29
2022-08-14T08:36:12.500Z,15.46
2022-08-14T08:39:16.370Z,15.49
2022-08-14T08:41:49.490Z,15.39
2022-08-14T08:44:33.017Z,14.97
2022-08-14T08:47:04.060Z,15.16
2022-08-14T08:49:42.004Z,15.49
2022-08-14T08:52:24.302Z,15.56
2022-08-14T08:54:58.849Z,15.43
2022-08-14T08:57:26.516Z,15.47
2022-08-14T08:59:55.286Z,15.19
2022-08-14T09:02:27.439Z,15.43
2022-08-14T09:05:05.818Z,15.25
2022-08-14T09:07:36.041Z,14.92
2022-08-14T09:10:08.624Z,15.14
2022-08-14T09:12:36.633Z,15.24
2022-08-14T09:15:12.946Z,14.92
2022-08-14T09:17:44.489Z,14.67
2022-08-14T09:20:25.728Z,14.80
2022-08-14T09:22:55.618Z,14.72
2022-08-14T09:25:58.570Z,14.46
2022-08-14T09:28:12.553Z,14.48
2022-08-14T09:30:50.707Z,14.49
2022-08-14T09:33:42.981Z,14.40
2022-08-14T09:36:51.835Z,14.46
2022-08-14T09:39:34.168Z,14.48
2022-08-14T09:42:50.193Z,14.52
2022-08-14T09:45:52.987Z,14.27
2022-08-14T09:48:27.483Z,14.31
2022-08-14T09:54:19.006Z,14.06
2022-08-14T09:56:30.898Z,14.22
2022-08-14T09:59:10.528Z,14.16
2022-08-14T10:01:39.038Z,14.18
2022-08-14T10:04:34.942Z,14.25
2022-08-14T10:07:08.537Z,14.35
2022-08-14T10:09:57.716Z,14.20
2022-08-14T10:12:48.512Z,14.02
2022-08-14T10:15:23.960Z,14.12
2022-08-14T10:18:17.307Z,14.09
2022-08-14T10:20:58.625Z,13.95
2022-08-14T10:23:33.670Z,13.83
2022-08-14T10:26:08.338Z,13.70
2022-08-14T10:29:14.055Z,13.30
2022-08-14T10:31:45.126Z,13.23
2022-08-14T10:34:19.840Z,13.32
2022-08-14T10:37:14.067Z,13.24
2022-08-14T10:39:51.434Z,13.46
2022-08-14T10:42:38.399Z,13.11
2022-08-14T10:45:42.026Z,13.22
2022-08-14T10:48:23.678Z,13.20
2022-08-14T10:51:08.686Z,13.25
2022-08-14T10:53:39.124Z,13.02
2022-08-14T10:56:21.663Z,13.09
2022-08-14T10:59:06.095Z,12.97
2022-08-14T11:01:41.248Z,12.90
2022-08-14T11:04:26.145Z,13.05
2022-08-14T11:06:56.967Z,13.09
2022-08-14T11:09:31.855Z,12.89
2022-08-14T11:12:33.155Z,12.81
2022-08-14T11:15:03.539Z,12.69
2022-08-14T11:17:35.257Z,12.60
2022-08-14T11:20:16.006Z,12.36
2022-08-14T11:22:56.729Z,12.32
2022-08-14T11:25:44.119Z,12.22
2022-08-14T11:28:48.189Z,12.17
2022-08-14T11:31:14.562Z,12.17
2022-08-14T11:33:43.876Z,12.26
2022-08-14T11:36:17.838Z,12.49
2022-08-14T11:38:50.625Z,12.45
2022-08-14T11:41:22.119Z,12.39
2022-08-14T11:43:58.124Z,12.44
2022-08-14T11:46:30.435Z,12.50
2022-08-14T11:49:08.340Z,12.52
2022-08-14T11:51:52.942Z,12.40
2022-08-14T11:54:34.208Z,12.32
2022-08-14T11:57:04.449Z,12.12
2022-08-14T11:59:33.527Z,11.79
2022-08-14T12:03:01.885Z,11.83
2022-08-14T12:05:09.284Z,11.79
2022-08-14T12:07:42.891Z,11.51
2022-08-14T12:10:27.331Z,11.72
2022-08-14T12:13:20.171Z,11.55
2022-08-14T12:15:59.897Z,11.63
2022-08-14T12:18:40.299Z,11.66
2022-08-14T12:21:20.963Z,11.47
2022-08-14T12:24:10.050Z,11.64
2022-08-14T12:26:58.960Z,11.50
2022-08-14T12:29:29.721Z,11.53
2022-08-14T12:32:03.930Z,11.65
2022-08-14T12:34:33.509Z,11.66
2022-08-14T12:37:07.340Z,11.68
2022-08-14T12:39:40.151Z,11.54
2022-08-14T12:42:12.004Z,11.55
2022-08-14T12:45:03.931Z,11.71
2022-08-14T12:47:32.660Z,11.57
2022-08-14T12:50:01.232Z,11.62
2022-08-14T12:52:56.247Z,11.66
2022-08-14T12:56:18.648Z,11.64
2022-08-14T12:58:36.493Z,11.64
2022-08-14T13:01:22.524Z,11.63
2022-08-14T13:03:51.948Z,11.48
2022-08-14T13:06:20.981Z,11.51
2022-08-14T13:08:53.178Z,11.36
2022-08-14T13:11:24.033Z,11.33
2022-08-14T13:13:54.786Z,11.43
2022-08-14T13:16:33.805Z,11.56
2022-08-14T13:19:11.181Z,11.54
2022-08-14T13:22:04.743Z,11.66
2022-08-14T13:24:33.682Z,11.67
2022-08-14T13:27:01.959Z,11.66
2022-08-14T13:29:35.006Z,11.59
2022-08-14T13:32:08.292Z,11.43
2022-08-14T13:34:36.861Z,11.44
2022-08-14T13:37:05.147Z,11.59
2022-08-14T13:39:36.315Z,11.47
2022-08-14T13:42:08.306Z,11.60
2022-08-14T13:44:37.171Z,11.55
2022-08-14T13:47:10.893Z,11.60
2022-08-14T13:49:40.307Z,11.67
2022-08-14T13:52:53.038Z,11.78
2022-08-14T13:55:16.274Z,11.84
2022-08-14T13:57:49.418Z,11.96
2022-08-14T14:00:21.744Z,12.06
2022-08-14T14:03:01.128Z,12.18
2022-08-14T14:05:52.128Z,12.36
2022-08-14T14:08:46.002Z,12.42
2022-08-14T14:11:12.003Z,12.60
2022-08-14T14:13:44.921Z,12.67
2022-08-14T14:16:15.522Z,12.79
2022-08-14T14:19:02.157Z,12.86
2022-08-14T14:21:34.629Z,13.00
2022-08-14T14:24:03.994Z,13.14
2022-08-14T14:26:33.297Z,13.21
2022-08-14T14:29:10.232Z,13.32
2022-08-14T14:31:39.032Z,13.39
2022-08-14T14:34:19.939Z,13.47
2022-08-14T14:37:01.618Z,13.63
2022-08-14T14:39:30.304Z,13.85
2022-08-14T14:42:04.067Z,13.92
2022-08-14T14:44:36.647Z,13.98
2022-08-14T14:47:09.202Z,14.09
2022-08-14T14:49:51.632Z,14.18
2022-08-14T14:52:27.159Z,14.32
2022-08-14T14:54:59.441Z,14.41
2022-08-14T14:57:34.978Z,14.48
2022-08-14T15:00:12.581Z,14.63
2022-08-14T15:02:47.049Z,14.81
2022-08-14T15:05:19.401Z,14.88
2022-08-14T15:07:49.019Z,14.98
2022-08-14T15:10:26.936Z,15.09
2022-08-14T15:13:05.462Z,15.28
2022-08-14T15:15:39.533Z,15.45
2022-08-14T15:18:36.389Z,15.64
2022-08-14T15:20:59.549Z,15.77
2022-08-14T15:23:44.406Z,15.96
2022-08-14T15:26:30.892Z,16.17
2022-08-14T15:29:05.696Z,16.24
2022-08-14T15:31:36.611Z,16.43
2022-08-14T15:34:44.655Z,16.45
2022-08-14T15:36:56.662Z,16.67
2022-08-14T15:39:25.547Z,16.88
2022-08-14T15:42:00.937Z,16.98
2022-08-14T15:44:34.192Z,17.11
2022-08-14T15:47:08.011Z,17.01
2022-08-14T15:49:37.193Z,17.42
2022-08-14T15:52:07.926Z,17.48
2022-08-14T15:54:38.327Z,17.65
2022-08-14T15:57:08.979Z,17.77
2022-08-14T15:59:38.657Z,17.99
2022-08-14T16:02:07.586Z,18.13
2022-08-14T16:04:42.100Z,18.14
2022-08-14T16:07:13.075Z,18.36
2022-08-14T16:09:42.915Z,18.40
2022-08-14T16:12:13.455Z,18.64
2022-08-14T16:14:45.506Z,18.71
2022-08-14T16:17:16.440Z,18.86
2022-08-14T16:19:49.448Z,18.70
2022-08-14T16:22:58.157Z,19.01
2022-08-14T16:25:10.855Z,19.24
2022-08-14T16:27:48.772Z,19.44
2022-08-14T16:30:27.466Z,19.35
2022-08-14T16:32:57.513Z,19.48
2022-08-14T16:35:43.119Z,19.49
2022-08-14T16:38:45.715Z,19.82
2022-08-14T16:41:09.293Z,19.44
2022-08-14T16:43:39.691Z,19.77
2022-08-14T16:46:09.131Z,20.17
2022-08-14T16:48:56.894Z,20.30
2022-08-14T16:51:34.761Z,19.85
2022-08-14T16:54:33.956Z,20.40
2022-08-14T16:56:53.788Z,20.37
2022-08-14T16:59:22.103Z,20.55
2022-08-14T17:02:06.352Z,21.02
2022-08-14T17:04:34.530Z,20.37
2022-08-14T17:07:16.282Z,20.82
2022-08-14T17:09:47.680Z,20.72
2022-08-14T17:12:33.427Z,21.37
2022-08-14T17:15:10.478Z,21.33
2022-08-14T17:17:41.837Z,21.45
2022-08-14T17:20:39.614Z,21.46
2022-08-14T17:23:02.613Z,21.63
2022-08-14T17:25:50.923Z,21.69
2022-08-14T17:28:50.349Z,21.97
2022-08-14T17:31:13.944Z,21.86
2022-08-14T17:33:44.607Z,22.04
2022-08-14T17:36:24.461Z,21.94
2022-08-14T17:39:08.990Z,22.12
2022-08-14T17:41:47.034Z,22.38
2022-08-14T17:44:33.406Z,22.53
2022-08-14T17:47:14.857Z,22.42
2022-08-14T17:49:51.721Z,22.61
2022-08-14T17:52:36.482Z,22.80
2022-08-14T17:55:12.735Z,23.21
2022-08-14T17:58:00.469Z,23.22
2022-08-14T18:00:28.617Z,23.52
2022-08-14T18:02:59.122Z,23.44
2022-08-14T18:06:07.391Z,23.13
2022-08-14T18:08:33.265Z,22.86
2022-08-14T18:11:07.295Z,23.04
2022-08-14T18:13:50.699Z,23.80
2022-08-14T18:16:22.391Z,23.26
2022-08-14T18:18:51.936Z,23.85
2022-08-14T18:21:42.736Z,24.11
2022-08-14T18:24:20.123Z,24.33
2022-08-14T18:27:26.599Z,24.31
2022-08-14T18:30:00.751Z,24.63
2022-08-14T18:32:55.002Z,24.25
2022-08-14T18:35:45.668Z,24.80
2022-08-14T18:38:26.333Z,24.89
2022-08-14T18:41:37.284Z,24.94
2022-08-14T18:44:10.612Z,25.11
2022-08-14T18:47:14.836Z,25.10
2022-08-14T18:49:55.281Z,25.45
2022-08-14T18:52:34.478Z,25.28
2022-08-14T18:55:22.778Z,25.31
2022-08-14T18:57:58.319Z,25.04
2022-08-14T19:00:32.920Z,24.73
2022-08-14T19:03:03.235Z,24.71
2022-08-14T19:05:47.801Z,24.49
2022-08-14T19:08:22.106Z,24.54
2022-08-14T19:11:00.101Z,24.95
2022-08-14T19:13:44.725Z,24.97
2022-08-14T19:16:22.757Z,25.61
2022-08-14T19:18:51.393Z,25.65
2022-08-14T19:21:31.719Z,25.77
2022-08-14T19:24:27.914Z,26.22
2022-08-14T19:27:19.433Z,26.16
2022-08-14T19:29:51.710Z,26.27
2022-08-14T19:32:36.852Z,26.59
2022-08-14T19:35:43.639Z,26.59
2022-08-14T19:38:51.643Z,26.77
2022-08-14T19:41:29.508Z,26.05
2022-08-14T19:44:19.167Z,26.19
2022-08-14T19:47:02.561Z,26.72
2022-08-14T19:50:30.913Z,26.72
2022-08-14T19:52:29.680Z,25.92
2022-08-14T19:55:01.216Z,25.75
2022-08-14T19:57:31.594Z,25.93
2022-08-14T20:00:05.611Z,26.32
2022-08-14T20:02:37.712Z,26.88
2022-08-14T20:05:07.696Z,26.42
2022-08-14T20:09:05.597Z,26.92
2022-08-14T20:11:07.097Z,26.79
2022-08-14T20:13:32.601Z,27.55
2022-08-14T20:16:12.296Z,27.18
2022-08-14T20:18:50.908Z,27.92
2022-08-14T20:21:22.512Z,28.00
2022-08-14T20:24:31.104Z,28.17
2022-08-14T20:27:17.761Z,27.62
2022-08-14T20:33:00.354Z,28.18
2022-08-14T20:35:41.773Z,28.45
2022-08-14T20:38:29.307Z,28.92
2022-08-14T20:41:10.702Z,28.68
2022-08-14T20:43:41.610Z,28.27
2022-08-14T20:46:12.497Z,29.15
2022-08-14T20:48:57.507Z,29.02
2022-08-14T20:51:36.344Z,29.56
2022-08-14T20:54:09.422Z,29.18
2022-08-14T20:56:39.967Z,29.44
2022-08-14T20:59:21.343Z,29.34
2022-08-14T21:01:58.876Z,29.21
2022-08-14T21:04:37.284Z,29.46
2022-08-14T21:07:25.675Z,29.18
2022-08-14T21:10:35.588Z,29.48
2022-08-14T21:13:25.809Z,29.38
2022-08-14T21:15:58.621Z,29.09
2022-08-14T21:18:31.716Z,29.42
2022-08-14T21:21:07.994Z,29.54
2022-08-14T21:23:54.281Z,29.69
2022-08-14T21:26:50.501Z,29.80
2022-08-14T21:29:13.919Z,29.82
2022-08-14T21:31:55.177Z,30.17
2022-08-14T21:34:27.126Z,29.81
2022-08-14T21:37:09.979Z,30.18
2022-08-14T21:39:40.815Z,30.09
2022-08-14T21:42:10.923Z,30.18
2022-08-14T21:44:42.756Z,30.32
2022-08-14T21:47:16.624Z,30.47
2022-08-14T21:49:46.239Z,30.09
2022-08-14T21:52:49.144Z,29.94
2022-08-14T21:55:12.432Z,29.54
2022-08-14T21:58:44.710Z,29.25
2022-08-14T22:00:36.589Z,30.61
2022-08-14T22:03:13.933Z,30.99
2022-08-14T22:05:46.183Z,30.78
2022-08-14T22:08:14.632Z,30.74
2022-08-14T22:10:46.891Z,30.72
2022-08-14T22:13:22.703Z,31.50
2022-08-14T22:15:54.310Z,31.01
2022-08-14T22:18:26.622Z,31.12
2022-08-14T22:20:58.004Z,31.04
2022-08-14T22:23:28.433Z,30.98
2022-08-14T22:25:56.764Z,31.22
2022-08-14T22:28:32.835Z,30.42
2022-08-14T22:31:10.223Z,30.28
2022-08-14T22:33:39.537Z,30.17
2022-08-14T22:36:08.360Z,30.07
2022-08-14T22:38:39.283Z,30.10
2022-08-14T22:41:27.472Z,29.81
2022-08-14T22:44:04.492Z,29.41
2022-08-14T22:46:35.113Z,29.58
2022-08-14T22:49:16.209Z,29.77
2022-08-14T22:51:57.484Z,29.37
2022-08-14T22:54:52.589Z,29.65
2022-08-14T22:57:15.413Z,30.08
2022-08-14T22:59:43.958Z,30.35
2022-08-14T23:02:17.157Z,30.52
2022-08-14T23:04:54.545Z,30.43
2022-08-14T23:07:25.146Z,31.03
2022-08-14T23:10:32.821Z,30.14
2022-08-14T23:13:06.724Z,29.90
2022-08-14T23:15:35.145Z,29.83
2022-08-14T23:18:06.191Z,29.44
2022-08-14T23:20:36.158Z,29.59
2022-08-14T23:23:22.807Z,29.70
2022-08-14T23:25:59.095Z,29.77
2022-08-14T23:28:34.706Z,29.69
2022-08-14T23:31:26.557Z,29.72
2022-08-14T23:34:09.100Z,30.20
2022-08-14T23:36:54.365Z,31.15
2022-08-14T23:39:30.790Z,31.35
2022-08-14T23:42:09.202Z,31.43
2022-08-14T23:44:39.232Z,31.60
2022-08-14T23:47:10.825Z,31.29
2022-08-14T23:49:56.653Z,30.45
2022-08-14T23:53:07.089Z,30.56
2022-08-14T23:55:17.288Z,30.98
2022-08-14T23:57:57.785Z,31.42
